KSEG

Penn Valley Airport

Selinsgrove, Pennsylvania, USA
METAR KSEG 181453Z AUTO 00000KT 8SM CLR M02/M11 A3013 RMK AO2 SLP211 I1000 I3000 T10221111 50002
Observed Flight Rules
Jan-18 @ 14:53 UTC (29 minutes ago) Visual Flight Rules
Wind Visibility Clouds
Calm 8 miles
  • Clear skies
Temperatures Readings
Current -2°C / 28°F
Dewpoint -11°C / 12°F
Humidity 51%
Altimeter 30.13" Hg
Pressure 1021.1 hPa
Elevation 134
METAR KSEG 181453Z AUTO 00000KT 8SM CLR M02/M11 A3013 RMK AO2 SLP211 I1000 I3000 T10221111 50002
Observed Flight Rules
Jan-18 @ 14:53 UTC
(29 minutes ago)
VFR
Wind Visibility
Calm 8 miles
Clouds
  • Clear skies
Temperature Dewpoint
-2°C / 28°F -11°C / 12°F
Humidity Altimeter Pressure
51% 30.13" Hg 1021.1 hPa